sensor_id;sensor_type;location;lat;lon;timestamp;pressure;altitude;pressure_sealevel;temperature;humidity
15382;BME280;7789;51.364;12.358;2024-01-30T00:04:02;101722.75;;;6.76;72.49
15382;BME280;7789;51.364;12.358;2024-01-30T00:09:05;101723.09;;;6.68;71.87
15382;BME280;7789;51.364;12.358;2024-01-30T00:14:11;101716.41;;;6.63;73.08
15382;BME280;7789;51.364;12.358;2024-01-30T00:19:16;101724.34;;;6.60;72.94
15382;BME280;7789;51.364;12.358;2024-01-30T00:24:19;101721.03;;;6.56;72.70
15382;BME280;7789;51.364;12.358;2024-01-30T00:29:24;101718.63;;;6.52;73.06
15382;BME280;7789;51.364;12.358;2024-01-30T00:34:32;101719.53;;;6.51;73.60
15382;BME280;7789;51.364;12.358;2024-01-30T00:39:36;101709.13;;;6.51;73.94
15382;BME280;7789;51.364;12.358;2024-01-30T00:44:41;101710.00;;;6.51;73.65
15382;BME280;7789;51.364;12.358;2024-01-30T00:49:44;101700.38;;;6.53;73.36
15382;BME280;7789;51.364;12.358;2024-01-30T00:54:47;101707.22;;;6.56;73.06
15382;BME280;7789;51.364;12.358;2024-01-30T00:59:52;101698.41;;;6.58;72.63
15382;BME280;7789;51.364;12.358;2024-01-30T01:04:56;101704.34;;;6.62;72.99
15382;BME280;7789;51.364;12.358;2024-01-30T01:10:02;101705.72;;;6.69;73.29
15382;BME280;7789;51.364;12.358;2024-01-30T01:15:11;101702.78;;;6.76;72.62
15382;BME280;7789;51.364;12.358;2024-01-30T01:20:22;101687.06;;;6.79;71.57
15382;BME280;7789;51.364;12.358;2024-01-30T01:25:28;101690.31;;;6.84;71.98
15382;BME280;7789;51.364;12.358;2024-01-30T01:30:38;101686.72;;;6.87;71.57
15382;BME280;7789;51.364;12.358;2024-01-30T01:35:42;101681.50;;;6.87;70.87
15382;BME280;7789;51.364;12.358;2024-01-30T01:40:45;101685.78;;;6.88;70.37
15382;BME280;7789;51.364;12.358;2024-01-30T01:45:50;101678.00;;;6.88;71.29
15382;BME280;7789;51.364;12.358;2024-01-30T01:50:54;101680.59;;;6.88;70.50
15382;BME280;7789;51.364;12.358;2024-01-30T01:55:57;101676.25;;;6.88;70.97
15382;BME280;7789;51.364;12.358;2024-01-30T02:01:03;101678.84;;;6.88;70.04
15382;BME280;7789;51.364;12.358;2024-01-30T02:06:08;101670.16;;;6.89;69.97
15382;BME280;7789;51.364;12.358;2024-01-30T02:11:15;101666.56;;;6.92;69.82
15382;BME280;7789;51.364;12.358;2024-01-30T02:16:22;101663.06;;;6.93;70.85
15382;BME280;7789;51.364;12.358;2024-01-30T02:21:33;101661.28;;;6.93;70.55
15382;BME280;7789;51.364;12.358;2024-01-30T02:26:37;101668.41;;;6.90;70.28
15382;BME280;7789;51.364;12.358;2024-01-30T02:31:40;101665.00;;;6.88;71.00
15382;BME280;7789;51.364;12.358;2024-01-30T02:36:45;101674.56;;;6.87;70.42
15382;BME280;7789;51.364;12.358;2024-01-30T02:41:49;101675.56;;;6.85;70.68
15382;BME280;7789;51.364;12.358;2024-01-30T02:46:52;101671.28;;;6.84;70.15
15382;BME280;7789;51.364;12.358;2024-01-30T02:51:58;101661.94;;;6.80;70.73
15382;BME280;7789;51.364;12.358;2024-01-30T02:57:02;101665.50;;;6.77;70.47
15382;BME280;7789;51.364;12.358;2024-01-30T03:02:05;101664.81;;;6.74;70.64
15382;BME280;7789;51.364;12.358;2024-01-30T03:07:10;101660.66;;;6.70;70.51
15382;BME280;7789;51.364;12.358;2024-01-30T03:12:13;101660.78;;;6.67;70.26
15382;BME280;7789;51.364;12.358;2024-01-30T03:17:17;101660.94;;;6.64;70.65
15382;BME280;7789;51.364;12.358;2024-01-30T03:22:22;101654.06;;;6.63;70.32
15382;BME280;7789;51.364;12.358;2024-01-30T03:27:25;101654.19;;;6.60;70.83
15382;BME280;7789;51.364;12.358;2024-01-30T03:32:29;101648.28;;;6.56;70.58
15382;BME280;7789;51.364;12.358;2024-01-30T03:37:34;101647.47;;;6.56;70.28
15382;BME280;7789;51.364;12.358;2024-01-30T03:42:38;101644.97;;;6.53;70.59
15382;BME280;7789;51.364;12.358;2024-01-30T03:47:43;101652.00;;;6.51;70.37
15382;BME280;7789;51.364;12.358;2024-01-30T03:52:48;101646.91;;;6.49;70.92
15382;BME280;7789;51.364;12.358;2024-01-30T03:57:51;101647.91;;;6.45;70.74
15382;BME280;7789;51.364;12.358;2024-01-30T04:02:55;101640.13;;;6.45;71.06
15382;BME280;7789;51.364;12.358;2024-01-30T04:08:00;101634.16;;;6.43;70.70
15382;BME280;7789;51.364;12.358;2024-01-30T04:13:03;101635.97;;;6.41;70.43
15382;BME280;7789;51.364;12.358;2024-01-30T04:18:10;101636.97;;;6.39;70.44
15382;BME280;7789;51.364;12.358;2024-01-30T04:23:15;101636.97;;;6.39;70.49
15382;BME280;7789;51.364;12.358;2024-01-30T04:28:18;101632.63;;;6.39;70.11
15382;BME280;7789;51.364;12.358;2024-01-30T04:33:22;101625.75;;;6.38;70.19
15382;BME280;7789;51.364;12.358;2024-01-30T04:38:27;101629.19;;;6.39;70.56
15382;BME280;7789;51.364;12.358;2024-01-30T04:43:30;101626.59;;;6.39;69.88
15382;BME280;7789;51.364;12.358;2024-01-30T04:48:33;101627.38;;;6.41;70.60
15382;BME280;7789;51.364;12.358;2024-01-30T04:53:38;101624.69;;;6.42;69.92
15382;BME280;7789;51.364;12.358;2024-01-30T04:58:42;101627.28;;;6.42;69.91
15382;BME280;7789;51.364;12.358;2024-01-30T05:03:46;101635.16;;;6.41;70.21
15382;BME280;7789;51.364;12.358;2024-01-30T05:08:51;101634.25;;;6.42;69.73
15382;BME280;7789;51.364;12.358;2024-01-30T05:13:54;101631.56;;;6.43;69.73
15382;BME280;7789;51.364;12.358;2024-01-30T05:18:57;101634.16;;;6.43;69.15
15382;BME280;7789;51.364;12.358;2024-01-30T05:24:06;101630.88;;;6.40;69.98
15382;BME280;7789;51.364;12.358;2024-01-30T05:29:11;101638.66;;;6.40;70.11
15382;BME280;7789;51.364;12.358;2024-01-30T05:34:14;101647.47;;;6.36;69.24
15382;BME280;7789;51.364;12.358;2024-01-30T05:39:20;101638.91;;;6.34;70.40
15382;BME280;7789;51.364;12.358;2024-01-30T05:44:23;101633.34;;;6.43;70.33
15382;BME280;7789;51.364;12.358;2024-01-30T05:49:26;101648.00;;;6.44;69.42
15382;BME280;7789;51.364;12.358;2024-01-30T05:54:31;101647.28;;;6.40;68.87
15382;BME280;7789;51.364;12.358;2024-01-30T05:59:35;101643.06;;;6.38;69.43
15382;BME280;7789;51.364;12.358;2024-01-30T06:04:42;101644.19;;;6.32;68.80
15382;BME280;7789;51.364;12.358;2024-01-30T06:09:48;101640.75;;;6.32;69.17
15382;BME280;7789;51.364;12.358;2024-01-30T06:14:52;101633.81;;;6.32;68.48
15382;BME280;7789;51.364;12.358;2024-01-30T06:19:58;101638.00;;;6.35;68.58
15382;BME280;7789;51.364;12.358;2024-01-30T06:25:09;101629.44;;;6.33;67.79
15382;BME280;7789;51.364;12.358;2024-01-30T06:30:14;101631.13;;;6.34;68.56
15382;BME280;7789;51.364;12.358;2024-01-30T06:35:18;101632.13;;;6.31;67.76
15382;BME280;7789;51.364;12.358;2024-01-30T06:40:24;101628.72;;;6.29;67.65
15382;BME280;7789;51.364;12.358;2024-01-30T06:45:28;101629.59;;;6.30;67.88
15382;BME280;7789;51.364;12.358;2024-01-30T06:50:35;101631.28;;;6.31;67.40
15382;BME280;7789;51.364;12.358;2024-01-30T06:55:40;101627.75;;;6.32;67.01
15382;BME280;7789;51.364;12.358;2024-01-30T07:00:47;101627.63;;;6.35;67.51
15382;BME280;7789;51.364;12.358;2024-01-30T07:05:50;101626.59;;;6.39;67.33
15382;BME280;7789;51.364;12.358;2024-01-30T07:10:55;101629.88;;;6.42;67.30
15382;BME280;7789;51.364;12.358;2024-01-30T07:16:02;101638.53;;;6.43;67.40
15382;BME280;7789;51.364;12.358;2024-01-30T07:21:05;101622.81;;;6.46;66.86
15382;BME280;7789;51.364;12.358;2024-01-30T07:26:10;101623.38;;;6.52;67.42
15382;BME280;7789;51.364;12.358;2024-01-30T07:31:14;101629.13;;;6.59;67.20
15382;BME280;7789;51.364;12.358;2024-01-30T07:36:18;101621.13;;;6.63;66.30
15382;BME280;7789;51.364;12.358;2024-01-30T07:41:24;101615.56;;;6.71;66.29
15382;BME280;7789;51.364;12.358;2024-01-30T07:46:28;101613.38;;;6.80;65.83
15382;BME280;7789;51.364;12.358;2024-01-30T07:51:31;101625.06;;;6.90;65.08
15382;BME280;7789;51.364;12.358;2024-01-30T07:56:36;101620.25;;;7.00;65.93
15382;BME280;7789;51.364;12.358;2024-01-30T08:01:40;101615.41;;;7.11;65.19
15382;BME280;7789;51.364;12.358;2024-01-30T08:06:43;101614.81;;;7.22;64.42
15382;BME280;7789;51.364;12.358;2024-01-30T08:11:48;101616.59;;;7.39;63.39
15382;BME280;7789;51.364;12.358;2024-01-30T08:16:52;101608.97;;;7.53;64.54
15382;BME280;7789;51.364;12.358;2024-01-30T08:21:55;101612.56;;;7.67;62.84
15382;BME280;7789;51.364;12.358;2024-01-30T08:27:00;101620.38;;;7.84;63.50
15382;BME280;7789;51.364;12.358;2024-01-30T08:32:05;101602.34;;;7.97;62.63
15382;BME280;7789;51.364;12.358;2024-01-30T08:37:09;101610.13;;;8.14;63.29
15382;BME280;7789;51.364;12.358;2024-01-30T08:42:14;101614.34;;;8.33;62.35
15382;BME280;7789;51.364;12.358;2024-01-30T08:47:20;101613.53;;;8.48;62.04
15382;BME280;7789;51.364;12.358;2024-01-30T08:52:23;101600.63;;;8.62;61.65
15382;BME280;7789;51.364;12.358;2024-01-30T08:57:28;101607.84;;;8.73;61.40
15382;BME280;7789;51.364;12.358;2024-01-30T09:02:32;101608.38;;;8.79;61.32
15382;BME280;7789;51.364;12.358;2024-01-30T09:07:36;101601.81;;;8.88;61.51
15382;BME280;7789;51.364;12.358;2024-01-30T09:12:41;101608.19;;;8.98;60.79
15382;BME280;7789;51.364;12.358;2024-01-30T09:17:44;101602.28;;;9.10;60.53
15382;BME280;7789;51.364;12.358;2024-01-30T09:22:48;101603.28;;;9.22;61.20
15382;BME280;7789;51.364;12.358;2024-01-30T09:27:53;101600.56;;;9.39;61.08
15382;BME280;7789;51.364;12.358;2024-01-30T09:32:57;101591.75;;;9.56;60.23
15382;BME280;7789;51.364;12.358;2024-01-30T09:38:02;101593.47;;;9.71;60.67
15382;BME280;7789;51.364;12.358;2024-01-30T09:43:07;101591.06;;;9.82;60.38
15382;BME280;7789;51.364;12.358;2024-01-30T09:48:11;101594.63;;;9.95;60.08
15382;BME280;7789;51.364;12.358;2024-01-30T09:53:15;101592.34;;;10.04;60.31
15382;BME280;7789;51.364;12.358;2024-01-30T09:58:21;101592.81;;;10.11;60.34
15382;BME280;7789;51.364;12.358;2024-01-30T10:03:25;101589.91;;;10.15;60.57
15382;BME280;7789;51.364;12.358;2024-01-30T10:08:29;101589.94;;;10.29;59.97
15382;BME280;7789;51.364;12.358;2024-01-30T10:13:34;101582.16;;;10.42;60.77
15382;BME280;7789;51.364;12.358;2024-01-30T10:18:38;101582.91;;;10.58;60.04
15382;BME280;7789;51.364;12.358;2024-01-30T10:23:45;101577.84;;;10.69;60.92
15382;BME280;7789;51.364;12.358;2024-01-30T10:28:50;101568.66;;;10.76;60.23
15382;BME280;7789;51.364;12.358;2024-01-30T10:33:53;101573.22;;;10.86;59.27
15382;BME280;7789;51.364;12.358;2024-01-30T10:39:14;101563.75;;;10.98;60.27
15382;BME280;7789;51.364;12.358;2024-01-30T10:44:22;101548.19;;;11.08;59.57
15382;BME280;7789;51.364;12.358;2024-01-30T10:49:25;101545.16;;;11.14;60.71
15382;BME280;7789;51.364;12.358;2024-01-30T10:54:31;101549.31;;;11.31;60.83
15382;BME280;7789;51.364;12.358;2024-01-30T10:59:40;101536.25;;;11.43;60.32
15382;BME280;7789;51.364;12.358;2024-01-30T11:04:45;101532.47;;;11.47;60.54
15382;BME280;7789;51.364;12.358;2024-01-30T11:09:50;101535.34;;;11.57;59.95
15382;BME280;7789;51.364;12.358;2024-01-30T11:15:07;101537.34;;;11.66;60.63
15382;BME280;7789;51.364;12.358;2024-01-30T11:20:11;101526.38;;;11.73;60.67
15382;BME280;7789;51.364;12.358;2024-01-30T11:25:19;101532.75;;;11.82;60.12
15382;BME280;7789;51.364;12.358;2024-01-30T11:30:26;101531.19;;;11.92;60.81
15382;BME280;7789;51.364;12.358;2024-01-30T11:35:31;101525.22;;;12.02;60.46
15382;BME280;7789;51.364;12.358;2024-01-30T11:40:37;101520.56;;;12.06;60.97
15382;BME280;7789;51.364;12.358;2024-01-30T11:45:42;101526.13;;;12.14;60.53
15382;BME280;7789;51.364;12.358;2024-01-30T11:50:47;101513.44;;;12.20;60.99
15382;BME280;7789;51.364;12.358;2024-01-30T11:55:51;101517.94;;;12.31;60.94
15382;BME280;7789;51.364;12.358;2024-01-30T12:00:56;101513.06;;;12.50;61.19
15382;BME280;7789;51.364;12.358;2024-01-30T12:06:00;101509.44;;;12.63;61.48
15382;BME280;7789;51.364;12.358;2024-01-30T12:11:06;101504.03;;;12.77;61.21
15382;BME280;7789;51.364;12.358;2024-01-30T12:16:11;101503.25;;;12.88;61.20
15382;BME280;7789;51.364;12.358;2024-01-30T12:21:16;101495.84;;;13.05;61.33
15382;BME280;7789;51.364;12.358;2024-01-30T12:26:20;101492.66;;;13.12;61.93
15382;BME280;7789;51.364;12.358;2024-01-30T12:31:29;101487.44;;;13.23;61.84
15382;BME280;7789;51.364;12.358;2024-01-30T12:36:35;101473.28;;;13.37;62.83
15382;BME280;7789;51.364;12.358;2024-01-30T12:41:39;101463.25;;;13.53;62.98
15382;BME280;7789;51.364;12.358;2024-01-30T12:46:45;101450.38;;;13.61;62.65
15382;BME280;7789;51.364;12.358;2024-01-30T12:51:51;101456.00;;;13.67;63.04
15382;BME280;7789;51.364;12.358;2024-01-30T12:56:57;101458.03;;;13.75;63.46
15382;BME280;7789;51.364;12.358;2024-01-30T13:02:03;101459.13;;;13.83;63.48
15382;BME280;7789;51.364;12.358;2024-01-30T13:07:07;101451.22;;;13.83;63.24
15382;BME280;7789;51.364;12.358;2024-01-30T13:12:10;101446.44;;;13.88;63.25
15382;BME280;7789;51.364;12.358;2024-01-30T13:17:22;101435.69;;;13.91;63.09
15382;BME280;7789;51.364;12.358;2024-01-30T13:22:25;101445.00;;;13.95;63.51
15382;BME280;7789;51.364;12.358;2024-01-30T13:27:29;101438.91;;;13.95;62.99
15382;BME280;7789;51.364;12.358;2024-01-30T13:32:34;101439.88;;;13.94;62.61
15382;BME280;7789;51.364;12.358;2024-01-30T13:37:39;101430.66;;;13.88;62.80
15382;BME280;7789;51.364;12.358;2024-01-30T13:42:44;101416.09;;;13.84;63.11
15382;BME280;7789;51.364;12.358;2024-01-30T13:47:49;101420.66;;;13.82;63.09
15382;BME280;7789;51.364;12.358;2024-01-30T13:52:53;101424.59;;;13.77;62.72
15382;BME280;7789;51.364;12.358;2024-01-30T13:57:59;101425.19;;;13.69;62.67
15382;BME280;7789;51.364;12.358;2024-01-30T14:03:09;101413.59;;;13.61;63.17
15382;BME280;7789;51.364;12.358;2024-01-30T14:08:13;101420.53;;;13.62;63.42
15382;BME280;7789;51.364;12.358;2024-01-30T14:13:17;101417.41;;;13.57;63.36
15382;BME280;7789;51.364;12.358;2024-01-30T14:18:22;101407.88;;;13.56;63.89
15382;BME280;7789;51.364;12.358;2024-01-30T14:23:27;101411.66;;;13.52;63.91
15382;BME280;7789;51.364;12.358;2024-01-30T14:28:31;101416.44;;;13.47;64.00
15382;BME280;7789;51.364;12.358;2024-01-30T14:33:40;101418.84;;;13.39;64.48
15382;BME280;7789;51.364;12.358;2024-01-30T14:38:44;101429.69;;;13.34;65.25
15382;BME280;7789;51.364;12.358;2024-01-30T14:43:53;101427.41;;;13.30;65.15
15382;BME280;7789;51.364;12.358;2024-01-30T14:54:07;101425.69;;;13.18;65.90
15382;BME280;7789;51.364;12.358;2024-01-30T14:59:11;101418.19;;;13.13;66.23
15382;BME280;7789;51.364;12.358;2024-01-30T15:09:31;101430.31;;;13.03;67.08
15382;BME280;7789;51.364;12.358;2024-01-30T15:14:39;101420.06;;;13.00;67.38
15382;BME280;7789;51.364;12.358;2024-01-30T15:19:44;101427.56;;;12.94;67.71
15382;BME280;7789;51.364;12.358;2024-01-30T15:24:48;101420.84;;;12.90;68.16
15382;BME280;7789;51.364;12.358;2024-01-30T15:29:55;101423.06;;;12.84;68.67
15382;BME280;7789;51.364;12.358;2024-01-30T15:35:06;101434.84;;;12.78;68.69
15382;BME280;7789;51.364;12.358;2024-01-30T15:40:14;101438.03;;;12.71;69.04
15382;BME280;7789;51.364;12.358;2024-01-30T15:45:17;101442.66;;;12.67;69.40
15382;BME280;7789;51.364;12.358;2024-01-30T15:50:24;101439.88;;;12.58;69.92
15382;BME280;7789;51.364;12.358;2024-01-30T15:55:35;101448.53;;;12.47;70.14
15382;BME280;7789;51.364;12.358;2024-01-30T16:00:39;101447.41;;;12.39;70.83
15382;BME280;7789;51.364;12.358;2024-01-30T16:05:44;101455.81;;;12.31;71.13
15382;BME280;7789;51.364;12.358;2024-01-30T16:10:48;101460.06;;;12.21;71.34
15382;BME280;7789;51.364;12.358;2024-01-30T16:15:51;101466.88;;;12.11;72.11
15382;BME280;7789;51.364;12.358;2024-01-30T16:20:56;101468.28;;;12.04;72.49
15382;BME280;7789;51.364;12.358;2024-01-30T16:26:00;101471.22;;;12.00;72.12
15382;BME280;7789;51.364;12.358;2024-01-30T16:31:04;101486.75;;;11.90;73.07
15382;BME280;7789;51.364;12.358;2024-01-30T16:36:13;101492.59;;;11.81;72.71
15382;BME280;7789;51.364;12.358;2024-01-30T16:41:23;101490.72;;;11.71;73.73
15382;BME280;7789;51.364;12.358;2024-01-30T16:46:27;101502.56;;;11.64;73.86
15382;BME280;7789;51.364;12.358;2024-01-30T16:51:33;101505.91;;;11.53;74.37
15382;BME280;7789;51.364;12.358;2024-01-30T16:56:37;101507.13;;;11.48;75.00
15382;BME280;7789;51.364;12.358;2024-01-30T17:01:50;101522.41;;;11.41;75.12
15382;BME280;7789;51.364;12.358;2024-01-30T17:06:55;101520.94;;;11.37;74.72
15382;BME280;7789;51.364;12.358;2024-01-30T17:12:02;101507.22;;;11.34;75.78
15382;BME280;7789;51.364;12.358;2024-01-30T17:17:05;101520.53;;;11.31;76.30
15382;BME280;7789;51.364;12.358;2024-01-30T17:22:16;101535.50;;;11.29;76.40
15382;BME280;7789;51.364;12.358;2024-01-30T17:27:20;101520.28;;;11.21;75.84
15382;BME280;7789;51.364;12.358;2024-01-30T17:32:24;101524.22;;;11.14;76.61
15382;BME280;7789;51.364;12.358;2024-01-30T17:37:29;101531.47;;;11.11;76.26
15382;BME280;7789;51.364;12.358;2024-01-30T17:42:37;101534.38;;;11.06;76.80
15382;BME280;7789;51.364;12.358;2024-01-30T17:47:41;101530.16;;;11.04;76.56
15382;BME280;7789;51.364;12.358;2024-01-30T17:52:46;101533.00;;;11.01;76.50
15382;BME280;7789;51.364;12.358;2024-01-30T17:57:50;101544.81;;;10.94;76.67
15382;BME280;7789;51.364;12.358;2024-01-30T18:02:54;101545.94;;;10.90;76.93
15382;BME280;7789;51.364;12.358;2024-01-30T18:08:00;101553.97;;;10.87;76.60
15382;BME280;7789;51.364;12.358;2024-01-30T18:13:04;101558.56;;;10.84;77.44
15382;BME280;7789;51.364;12.358;2024-01-30T18:18:12;101555.38;;;10.79;77.03
15382;BME280;7789;51.364;12.358;2024-01-30T18:23:19;101565.97;;;10.77;77.85
15382;BME280;7789;51.364;12.358;2024-01-30T18:28:27;101566.44;;;10.70;77.49
15382;BME280;7789;51.364;12.358;2024-01-30T18:33:31;101571.97;;;10.65;77.51
15382;BME280;7789;51.364;12.358;2024-01-30T18:38:36;101581.75;;;10.62;77.58
15382;BME280;7789;51.364;12.358;2024-01-30T18:43:40;101576.06;;;10.55;77.85
15382;BME280;7789;51.364;12.358;2024-01-30T18:48:44;101587.84;;;10.48;77.95
15382;BME280;7789;51.364;12.358;2024-01-30T18:53:53;101592.75;;;10.40;79.08
15382;BME280;7789;51.364;12.358;2024-01-30T18:58:56;101596.56;;;10.35;79.17
15382;BME280;7789;51.364;12.358;2024-01-30T19:04:00;101611.56;;;10.31;80.02
15382;BME280;7789;51.364;12.358;2024-01-30T19:09:08;101613.44;;;10.29;79.33
15382;BME280;7789;51.364;12.358;2024-01-30T19:14:12;101602.25;;;10.27;79.63
15382;BME280;7789;51.364;12.358;2024-01-30T19:19:16;101605.31;;;10.20;80.03
15382;BME280;7789;51.364;12.358;2024-01-30T19:24:25;101612.50;;;10.16;80.28
15382;BME280;7789;51.364;12.358;2024-01-30T19:29:29;101614.56;;;10.11;80.73
15382;BME280;7789;51.364;12.358;2024-01-30T19:34:32;101624.34;;;10.08;81.24
15382;BME280;7789;51.364;12.358;2024-01-30T19:39:38;101624.75;;;10.00;81.40
15382;BME280;7789;51.364;12.358;2024-01-30T19:44:41;101631.03;;;9.98;82.29
15382;BME280;7789;51.364;12.358;2024-01-30T19:49:45;101645.09;;;9.95;82.37
15382;BME280;7789;51.364;12.358;2024-01-30T19:54:50;101652.94;;;9.95;82.35
15382;BME280;7789;51.364;12.358;2024-01-30T19:59:54;101651.06;;;9.97;82.34
15382;BME280;7789;51.364;12.358;2024-01-30T20:04:57;101656.06;;;10.02;82.26
15382;BME280;7789;51.364;12.358;2024-01-30T20:10:03;101654.88;;;10.07;82.97
15382;BME280;7789;51.364;12.358;2024-01-30T20:15:10;101661.66;;;10.10;82.30
15382;BME280;7789;51.364;12.358;2024-01-30T20:20:16;101659.06;;;10.10;82.53
15382;BME280;7789;51.364;12.358;2024-01-30T20:25:21;101669.25;;;10.14;83.69
15382;BME280;7789;51.364;12.358;2024-01-30T20:30:25;101673.19;;;10.21;83.62
15382;BME280;7789;51.364;12.358;2024-01-30T20:35:29;101682.34;;;10.28;83.38
15382;BME280;7789;51.364;12.358;2024-01-30T20:40:34;101685.63;;;10.32;84.12
15382;BME280;7789;51.364;12.358;2024-01-30T20:45:38;101681.13;;;10.34;83.19
15382;BME280;7789;51.364;12.358;2024-01-30T20:50:41;101680.94;;;10.37;83.10
15382;BME280;7789;51.364;12.358;2024-01-30T20:55:46;101681.69;;;10.39;84.07
15382;BME280;7789;51.364;12.358;2024-01-30T21:00:50;101689.44;;;10.40;83.55
15382;BME280;7789;51.364;12.358;2024-01-30T21:05:54;101694.56;;;10.42;84.54
15382;BME280;7789;51.364;12.358;2024-01-30T21:10:59;101685.78;;;10.43;85.23
15382;BME280;7789;51.364;12.358;2024-01-30T21:16:05;101701.59;;;10.41;85.09
15382;BME280;7789;51.364;12.358;2024-01-30T21:21:09;101690.28;;;10.41;85.89
15382;BME280;7789;51.364;12.358;2024-01-30T21:26:14;101684.97;;;10.42;85.65
15382;BME280;7789;51.364;12.358;2024-01-30T21:31:18;101688.59;;;10.40;86.27
15382;BME280;7789;51.364;12.358;2024-01-30T21:36:21;101682.63;;;10.38;86.32
15382;BME280;7789;51.364;12.358;2024-01-30T21:41:26;101675.72;;;10.37;87.46
15382;BME280;7789;51.364;12.358;2024-01-30T21:46:29;101677.31;;;10.39;86.91
15382;BME280;7789;51.364;12.358;2024-01-30T21:51:33;101674.59;;;10.41;87.97
15382;BME280;7789;51.364;12.358;2024-01-30T21:56:38;101671.03;;;10.42;87.48
15382;BME280;7789;51.364;12.358;2024-01-30T22:01:42;101669.38;;;10.41;87.98
15382;BME280;7789;51.364;12.358;2024-01-30T22:06:45;101679.81;;;10.41;87.46
15382;BME280;7789;51.364;12.358;2024-01-30T22:11:51;101683.19;;;10.43;88.19
15382;BME280;7789;51.364;12.358;2024-01-30T22:16:54;101673.84;;;10.39;88.35
15382;BME280;7789;51.364;12.358;2024-01-30T22:21:58;101673.84;;;10.39;88.41
15382;BME280;7789;51.364;12.358;2024-01-30T22:27:03;101678.88;;;10.42;88.87
15382;BME280;7789;51.364;12.358;2024-01-30T22:32:07;101682.53;;;10.39;88.35
15382;BME280;7789;51.364;12.358;2024-01-30T22:37:10;101692.34;;;10.36;88.12
15382;BME280;7789;51.364;12.358;2024-01-30T22:42:15;101692.53;;;10.33;87.74
15382;BME280;7789;51.364;12.358;2024-01-30T22:47:19;101694.47;;;10.29;87.99
15382;BME280;7789;51.364;12.358;2024-01-30T22:52:22;101709.28;;;10.29;87.23
15382;BME280;7789;51.364;12.358;2024-01-30T22:57:28;101717.25;;;10.27;88.44
15382;BME280;7789;51.364;12.358;2024-01-30T23:02:31;101728.81;;;10.23;87.12
15382;BME280;7789;51.364;12.358;2024-01-30T23:07:35;101727.41;;;10.18;87.60
15382;BME280;7789;51.364;12.358;2024-01-30T23:12:44;101728.81;;;10.23;87.04
15382;BME280;7789;51.364;12.358;2024-01-30T23:17:47;101732.19;;;10.25;87.76
15382;BME280;7789;51.364;12.358;2024-01-30T23:22:51;101731.31;;;10.25;86.67
15382;BME280;7789;51.364;12.358;2024-01-30T23:27:56;101746.00;;;10.27;87.46
15382;BME280;7789;51.364;12.358;2024-01-30T23:33:01;101745.06;;;10.28;87.32
15382;BME280;7789;51.364;12.358;2024-01-30T23:38:04;101746.81;;;10.28;87.13
15382;BME280;7789;51.364;12.358;2024-01-30T23:43:10;101762.69;;;10.25;87.32
15382;BME280;7789;51.364;12.358;2024-01-30T23:48:13;101759.25;;;10.24;87.44
15382;BME280;7789;51.364;12.358;2024-01-30T23:53:17;101767.66;;;10.29;87.53
15382;BME280;7789;51.364;12.358;2024-01-30T23:58:22;101770.00;;;10.34;87.36
